sensor_id;sensor_type;location;lat;lon;timestamp;temperature;humidity
22108;DHT22;11220;48.812;9.128;2022-11-20T00:01:28;16.90;90.90
22108;DHT22;11220;48.812;9.128;2022-11-20T00:03:56;17.00;90.90
22108;DHT22;11220;48.812;9.128;2022-11-20T00:06:23;16.90;90.90
22108;DHT22;11220;48.812;9.128;2022-11-20T00:08:49;17.00;90.90
22108;DHT22;11220;48.812;9.128;2022-11-20T00:11:17;17.00;90.90
22108;DHT22;11220;48.812;9.128;2022-11-20T00:13:44;17.00;90.90
22108;DHT22;11220;48.812;9.128;2022-11-20T00:16:12;17.00;90.90
22108;DHT22;11220;48.812;9.128;2022-11-20T00:18:38;17.00;91.00
22108;DHT22;11220;48.812;9.128;2022-11-20T00:21:06;16.90;90.90
22108;DHT22;11220;48.812;9.128;2022-11-20T00:23:32;17.00;90.90
22108;DHT22;11220;48.812;9.128;2022-11-20T00:26:02;16.90;90.90
22108;DHT22;11220;48.812;9.128;2022-11-20T00:28:28;17.00;90.90
22108;DHT22;11220;48.812;9.128;2022-11-20T00:31:04;16.90;90.90
22108;DHT22;11220;48.812;9.128;2022-11-20T00:33:30;16.90;90.90
22108;DHT22;11220;48.812;9.128;2022-11-20T00:36:06;16.90;90.90
22108;DHT22;11220;48.812;9.128;2022-11-20T00:38:32;16.90;90.90
22108;DHT22;11220;48.812;9.128;2022-11-20T00:41:00;16.90;90.90
22108;DHT22;11220;48.812;9.128;2022-11-20T00:43:26;17.00;90.90
22108;DHT22;11220;48.812;9.128;2022-11-20T00:46:02;16.90;90.90
22108;DHT22;11220;48.812;9.128;2022-11-20T00:48:28;16.90;90.90
22108;DHT22;11220;48.812;9.128;2022-11-20T00:50:54;16.90;90.90
22108;DHT22;11220;48.812;9.128;2022-11-20T00:53:20;16.90;90.90
22108;DHT22;11220;48.812;9.128;2022-11-20T00:56:00;16.90;90.90
22108;DHT22;11220;48.812;9.128;2022-11-20T00:58:29;16.90;90.90
22108;DHT22;11220;48.812;9.128;2022-11-20T01:01:06;16.90;90.90
22108;DHT22;11220;48.812;9.128;2022-11-20T01:03:33;16.90;90.90
22108;DHT22;11220;48.812;9.128;2022-11-20T01:06:04;16.90;90.90
22108;DHT22;11220;48.812;9.128;2022-11-20T01:08:34;16.90;90.90
22108;DHT22;11220;48.812;9.128;2022-11-20T01:11:09;16.90;90.90
22108;DHT22;11220;48.812;9.128;2022-11-20T01:13:35;16.80;90.90
22108;DHT22;11220;48.812;9.128;2022-11-20T01:18:36;16.90;91.00
22108;DHT22;11220;48.812;9.128;2022-11-20T01:21:12;16.90;90.90
22108;DHT22;11220;48.812;9.128;2022-11-20T01:23:40;16.80;90.90
22108;DHT22;11220;48.812;9.128;2022-11-20T01:26:09;16.90;90.90
22108;DHT22;11220;48.812;9.128;2022-11-20T01:28:35;16.90;90.90
22108;DHT22;11220;48.812;9.128;2022-11-20T01:31:01;16.70;90.90
22108;DHT22;11220;48.812;9.128;2022-11-20T01:33:27;16.70;91.30
22108;DHT22;11220;48.812;9.128;2022-11-20T01:35:53;16.80;90.90
22108;DHT22;11220;48.812;9.128;2022-11-20T01:38:19;16.80;90.90
22108;DHT22;11220;48.812;9.128;2022-11-20T01:40:53;16.90;90.90
22108;DHT22;11220;48.812;9.128;2022-11-20T01:43:19;16.80;90.90
22108;DHT22;11220;48.812;9.128;2022-11-20T01:48:40;16.80;90.90
22108;DHT22;11220;48.812;9.128;2022-11-20T01:51:15;16.80;90.90
22108;DHT22;11220;48.812;9.128;2022-11-20T01:53:42;16.90;90.90
22108;DHT22;11220;48.812;9.128;2022-11-20T01:56:10;16.80;90.90
22108;DHT22;11220;48.812;9.128;2022-11-20T01:58:41;16.80;90.90
22108;DHT22;11220;48.812;9.128;2022-11-20T02:01:07;16.80;90.90
22108;DHT22;11220;48.812;9.128;2022-11-20T02:03:33;17.20;91.00
22108;DHT22;11220;48.812;9.128;2022-11-20T02:08:43;16.70;90.90
22108;DHT22;11220;48.812;9.128;2022-11-20T02:11:09;16.70;91.00
22108;DHT22;11220;48.812;9.128;2022-11-20T02:13:35;16.70;91.00
22108;DHT22;11220;48.812;9.128;2022-11-20T02:18:47;16.70;91.10
22108;DHT22;11220;48.812;9.128;2022-11-20T02:21:32;17.40;91.10
22108;DHT22;11220;48.812;9.128;2022-11-20T02:24:15;16.70;90.90
22108;DHT22;11220;48.812;9.128;2022-11-20T02:27:05;16.80;90.90
22108;DHT22;11220;48.812;9.128;2022-11-20T02:32:26;16.70;90.90
22108;DHT22;11220;48.812;9.128;2022-11-20T02:34:52;16.70;90.90
22108;DHT22;11220;48.812;9.128;2022-11-20T02:37:19;16.70;91.20
22108;DHT22;11220;48.812;9.128;2022-11-20T02:39:47;16.80;90.90
22108;DHT22;11220;48.812;9.128;2022-11-20T02:42:16;16.70;91.00
22108;DHT22;11220;48.812;9.128;2022-11-20T02:44:42;15.20;90.80
22108;DHT22;11220;48.812;9.128;2022-11-20T02:47:10;16.70;91.20
22108;DHT22;11220;48.812;9.128;2022-11-20T02:49:38;16.70;91.00
22108;DHT22;11220;48.812;9.128;2022-11-20T02:52:04;17.90;91.80
22108;DHT22;11220;48.812;9.128;2022-11-20T02:54:29;16.70;91.40
22108;DHT22;11220;48.812;9.128;2022-11-20T02:56:58;16.70;91.30
22108;DHT22;11220;48.812;9.128;2022-11-20T02:59:28;16.70;91.10
22108;DHT22;11220;48.812;9.128;2022-11-20T03:01:56;16.70;91.50
22108;DHT22;11220;48.812;9.128;2022-11-20T03:04:25;16.70;91.10
22108;DHT22;11220;48.812;9.128;2022-11-20T03:06:51;17.90;91.70
22108;DHT22;11220;48.812;9.128;2022-11-20T03:09:16;16.70;91.20
22108;DHT22;11220;48.812;9.128;2022-11-20T03:11:42;16.70;91.10
22108;DHT22;11220;48.812;9.128;2022-11-20T03:14:08;17.00;91.00
22108;DHT22;11220;48.812;9.128;2022-11-20T03:16:34;18.00;91.40
22108;DHT22;11220;48.812;9.128;2022-11-20T03:19:00;17.10;91.20
22108;DHT22;11220;48.812;9.128;2022-11-20T03:21:26;17.20;91.20
22108;DHT22;11220;48.812;9.128;2022-11-20T03:23:53;16.60;91.10
22108;DHT22;11220;48.812;9.128;2022-11-20T03:26:22;17.60;91.20
22108;DHT22;11220;48.812;9.128;2022-11-20T03:28:51;16.60;90.90
22108;DHT22;11220;48.812;9.128;2022-11-20T03:31:20;17.20;91.10
22108;DHT22;11220;48.812;9.128;2022-11-20T03:33:46;16.60;91.00
22108;DHT22;11220;48.812;9.128;2022-11-20T03:36:14;16.60;91.10
22108;DHT22;11220;48.812;9.128;2022-11-20T03:38:41;18.10;91.40
22108;DHT22;11220;48.812;9.128;2022-11-20T03:41:19;17.50;91.50
22108;DHT22;11220;48.812;9.128;2022-11-20T03:43:50;16.70;90.80
22108;DHT22;11220;48.812;9.128;2022-11-20T03:46:16;16.90;90.90
22108;DHT22;11220;48.812;9.128;2022-11-20T03:48:42;16.70;91.00
22108;DHT22;11220;48.812;9.128;2022-11-20T03:51:18;17.40;91.10
22108;DHT22;11220;48.812;9.128;2022-11-20T03:53:46;16.70;90.80
22108;DHT22;11220;48.812;9.128;2022-11-20T03:56:13;18.30;91.40
22108;DHT22;11220;48.812;9.128;2022-11-20T03:58:40;17.40;91.10
22108;DHT22;11220;48.812;9.128;2022-11-20T04:01:14;16.70;90.90
22108;DHT22;11220;48.812;9.128;2022-11-20T04:03:41;16.60;90.70
22108;DHT22;11220;48.812;9.128;2022-11-20T04:06:17;16.60;90.70
22108;DHT22;11220;48.812;9.128;2022-11-20T04:08:43;16.70;90.80
22108;DHT22;11220;48.812;9.128;2022-11-20T04:11:24;16.50;90.70
22108;DHT22;11220;48.812;9.128;2022-11-20T04:13:53;16.60;90.70
22108;DHT22;11220;48.812;9.128;2022-11-20T04:16:19;16.60;90.80
22108;DHT22;11220;48.812;9.128;2022-11-20T04:18:45;16.60;90.80
22108;DHT22;11220;48.812;9.128;2022-11-20T04:21:11;16.60;90.90
22108;DHT22;11220;48.812;9.128;2022-11-20T04:23:37;17.80;91.10
22108;DHT22;11220;48.812;9.128;2022-11-20T04:26:11;16.70;90.70
22108;DHT22;11220;48.812;9.128;2022-11-20T04:28:37;16.90;90.80
22108;DHT22;11220;48.812;9.128;2022-11-20T04:33:29;16.60;90.80
22108;DHT22;11220;48.812;9.128;2022-11-20T04:35:55;17.70;91.20
22108;DHT22;11220;48.812;9.128;2022-11-20T04:38:20;16.60;90.80
22108;DHT22;11220;48.812;9.128;2022-11-20T04:40:46;16.60;90.80
22108;DHT22;11220;48.812;9.128;2022-11-20T04:43:11;16.60;90.90
22108;DHT22;11220;48.812;9.128;2022-11-20T04:45:37;16.50;91.00
22108;DHT22;11220;48.812;9.128;2022-11-20T04:48:05;16.60;90.90
22108;DHT22;11220;48.812;9.128;2022-11-20T04:50:31;16.50;90.80
22108;DHT22;11220;48.812;9.128;2022-11-20T04:52:59;16.60;90.80
22108;DHT22;11220;48.812;9.128;2022-11-20T04:55:24;16.60;90.90
22108;DHT22;11220;48.812;9.128;2022-11-20T04:57:50;17.00;91.00
22108;DHT22;11220;48.812;9.128;2022-11-20T05:00:17;17.50;91.20
22108;DHT22;11220;48.812;9.128;2022-11-20T05:02:42;16.60;90.70
22108;DHT22;11220;48.812;9.128;2022-11-20T05:05:08;16.60;90.60
22108;DHT22;11220;48.812;9.128;2022-11-20T05:07:33;16.60;90.60
22108;DHT22;11220;48.812;9.128;2022-11-20T05:09:59;16.60;90.60
22108;DHT22;11220;48.812;9.128;2022-11-20T05:12:24;16.60;90.60
22108;DHT22;11220;48.812;9.128;2022-11-20T05:14:50;16.50;90.60
22108;DHT22;11220;48.812;9.128;2022-11-20T05:17:16;16.60;91.10
22108;DHT22;11220;48.812;9.128;2022-11-20T05:19:41;16.60;90.60
22108;DHT22;11220;48.812;9.128;2022-11-20T05:22:07;16.50;90.60
22108;DHT22;11220;48.812;9.128;2022-11-20T05:24:32;16.60;90.60
22108;DHT22;11220;48.812;9.128;2022-11-20T05:26:58;16.60;90.60
22108;DHT22;11220;48.812;9.128;2022-11-20T05:29:23;16.50;90.60
22108;DHT22;11220;48.812;9.128;2022-11-20T05:31:49;16.60;90.60
22108;DHT22;11220;48.812;9.128;2022-11-20T05:34:14;16.60;90.60
22108;DHT22;11220;48.812;9.128;2022-11-20T05:36:40;16.60;90.60
22108;DHT22;11220;48.812;9.128;2022-11-20T05:39:05;16.60;90.60
22108;DHT22;11220;48.812;9.128;2022-11-20T05:41:33;16.50;90.50
22108;DHT22;11220;48.812;9.128;2022-11-20T05:43:58;16.50;90.50
22108;DHT22;11220;48.812;9.128;2022-11-20T05:46:24;16.60;90.60
22108;DHT22;11220;48.812;9.128;2022-11-20T05:48:50;16.60;90.60
22108;DHT22;11220;48.812;9.128;2022-11-20T05:51:18;16.60;90.60
22108;DHT22;11220;48.812;9.128;2022-11-20T05:53:44;16.60;90.60
22108;DHT22;11220;48.812;9.128;2022-11-20T05:56:18;16.50;90.50
22108;DHT22;11220;48.812;9.128;2022-11-20T05:58:44;16.60;90.60
22108;DHT22;11220;48.812;9.128;2022-11-20T06:01:13;16.60;90.60
22108;DHT22;11220;48.812;9.128;2022-11-20T06:03:40;16.60;90.60
22108;DHT22;11220;48.812;9.128;2022-11-20T06:06:07;16.60;90.60
22108;DHT22;11220;48.812;9.128;2022-11-20T06:08:33;16.60;90.60
22108;DHT22;11220;48.812;9.128;2022-11-20T06:11:06;16.60;90.60
22108;DHT22;11220;48.812;9.128;2022-11-20T06:13:32;16.60;90.50
22108;DHT22;11220;48.812;9.128;2022-11-20T06:15:58;16.70;90.60
22108;DHT22;11220;48.812;9.128;2022-11-20T06:18:26;16.90;90.60
22108;DHT22;11220;48.812;9.128;2022-11-20T06:21:03;16.70;90.50
22108;DHT22;11220;48.812;9.128;2022-11-20T06:23:30;16.70;90.50
22108;DHT22;11220;48.812;9.128;2022-11-20T06:25:56;16.70;90.50
22108;DHT22;11220;48.812;9.128;2022-11-20T06:28:22;16.70;90.50
22108;DHT22;11220;48.812;9.128;2022-11-20T06:30:47;16.60;90.40
22108;DHT22;11220;48.812;9.128;2022-11-20T06:33:13;16.80;90.50
22108;DHT22;11220;48.812;9.128;2022-11-20T06:35:38;16.80;90.50
22108;DHT22;11220;48.812;9.128;2022-11-20T06:38:07;16.80;90.60
22108;DHT22;11220;48.812;9.128;2022-11-20T06:40:33;16.80;90.60
22108;DHT22;11220;48.812;9.128;2022-11-20T06:42:58;16.90;90.60
22108;DHT22;11220;48.812;9.128;2022-11-20T06:45:24;16.90;90.60
22108;DHT22;11220;48.812;9.128;2022-11-20T06:47:49;16.90;90.70
22108;DHT22;11220;48.812;9.128;2022-11-20T06:50:15;17.00;90.70
22108;DHT22;11220;48.812;9.128;2022-11-20T06:52:40;16.90;90.60
22108;DHT22;11220;48.812;9.128;2022-11-20T06:55:06;16.90;90.70
22108;DHT22;11220;48.812;9.128;2022-11-20T06:57:32;17.00;90.70
22108;DHT22;11220;48.812;9.128;2022-11-20T06:59:58;17.00;90.70
22108;DHT22;11220;48.812;9.128;2022-11-20T07:02:23;17.50;90.80
22108;DHT22;11220;48.812;9.128;2022-11-20T07:04:49;17.00;90.70
22108;DHT22;11220;48.812;9.128;2022-11-20T07:07:14;17.50;90.80
22108;DHT22;11220;48.812;9.128;2022-11-20T07:09:40;17.10;90.70
22108;DHT22;11220;48.812;9.128;2022-11-20T07:12:06;17.20;90.70
22108;DHT22;11220;48.812;9.128;2022-11-20T07:14:31;17.10;90.60
22108;DHT22;11220;48.812;9.128;2022-11-20T07:16:57;17.10;90.60
22108;DHT22;11220;48.812;9.128;2022-11-20T07:19:22;17.40;90.70
22108;DHT22;11220;48.812;9.128;2022-11-20T07:21:48;17.20;90.60
22108;DHT22;11220;48.812;9.128;2022-11-20T07:24:13;17.10;90.60
22108;DHT22;11220;48.812;9.128;2022-11-20T07:26:39;17.30;90.60
22108;DHT22;11220;48.812;9.128;2022-11-20T07:29:04;17.20;90.50
22108;DHT22;11220;48.812;9.128;2022-11-20T07:31:30;17.20;90.50
22108;DHT22;11220;48.812;9.128;2022-11-20T07:33:55;17.20;90.50
22108;DHT22;11220;48.812;9.128;2022-11-20T07:36:21;17.20;90.50
22108;DHT22;11220;48.812;9.128;2022-11-20T07:38:47;17.10;90.50
22108;DHT22;11220;48.812;9.128;2022-11-20T07:41:25;17.20;90.40
22108;DHT22;11220;48.812;9.128;2022-11-20T07:43:50;17.30;90.50
22108;DHT22;11220;48.812;9.128;2022-11-20T07:46:16;17.20;90.40
22108;DHT22;11220;48.812;9.128;2022-11-20T07:48:42;17.10;90.40
22108;DHT22;11220;48.812;9.128;2022-11-20T07:51:07;17.20;90.40
22108;DHT22;11220;48.812;9.128;2022-11-20T07:53:33;17.20;90.40
22108;DHT22;11220;48.812;9.128;2022-11-20T07:56:00;17.20;90.40
22108;DHT22;11220;48.812;9.128;2022-11-20T07:58:26;17.20;90.40
22108;DHT22;11220;48.812;9.128;2022-11-20T08:00:51;17.20;90.40
22108;DHT22;11220;48.812;9.128;2022-11-20T08:03:17;17.30;90.40
22108;DHT22;11220;48.812;9.128;2022-11-20T08:05:42;17.20;90.40
22108;DHT22;11220;48.812;9.128;2022-11-20T08:08:08;17.20;90.40
22108;DHT22;11220;48.812;9.128;2022-11-20T08:10:34;17.20;90.40
22108;DHT22;11220;48.812;9.128;2022-11-20T08:12:59;18.20;90.70
22108;DHT22;11220;48.812;9.128;2022-11-20T08:15:50;17.20;90.40
22108;DHT22;11220;48.812;9.128;2022-11-20T08:18:16;17.20;90.40
22108;DHT22;11220;48.812;9.128;2022-11-20T08:20:44;17.20;90.40
22108;DHT22;11220;48.812;9.128;2022-11-20T08:23:10;17.20;90.40
22108;DHT22;11220;48.812;9.128;2022-11-20T08:25:37;17.30;90.40
22108;DHT22;11220;48.812;9.128;2022-11-20T08:28:05;17.40;90.50
22108;DHT22;11220;48.812;9.128;2022-11-20T08:30:31;17.30;90.40
22108;DHT22;11220;48.812;9.128;2022-11-20T08:33:06;17.50;90.50
22108;DHT22;11220;48.812;9.128;2022-11-20T08:35:34;17.30;90.50
22108;DHT22;11220;48.812;9.128;2022-11-20T08:38:01;17.20;90.40
22108;DHT22;11220;48.812;9.128;2022-11-20T08:40:27;17.20;90.50
22108;DHT22;11220;48.812;9.128;2022-11-20T08:42:52;17.20;90.50
22108;DHT22;11220;48.812;9.128;2022-11-20T08:45:19;17.20;90.50
22108;DHT22;11220;48.812;9.128;2022-11-20T08:47:45;17.30;90.50
22108;DHT22;11220;48.812;9.128;2022-11-20T08:50:13;17.30;90.50
22108;DHT22;11220;48.812;9.128;2022-11-20T08:52:39;17.30;90.50
22108;DHT22;11220;48.812;9.128;2022-11-20T08:55:05;17.40;90.50
22108;DHT22;11220;48.812;9.128;2022-11-20T08:57:36;17.30;90.40
22108;DHT22;11220;48.812;9.128;2022-11-20T09:00:04;17.30;90.60
22108;DHT22;11220;48.812;9.128;2022-11-20T09:02:30;17.40;90.50
22108;DHT22;11220;48.812;9.128;2022-11-20T09:04:56;17.30;90.40
22108;DHT22;11220;48.812;9.128;2022-11-20T09:07:21;17.30;90.40
22108;DHT22;11220;48.812;9.128;2022-11-20T09:09:47;17.40;90.40
22108;DHT22;11220;48.812;9.128;2022-11-20T09:12:13;17.40;90.40
22108;DHT22;11220;48.812;9.128;2022-11-20T09:14:39;17.40;90.40
22108;DHT22;11220;48.812;9.128;2022-11-20T09:17:04;17.40;90.40
22108;DHT22;11220;48.812;9.128;2022-11-20T09:19:30;17.40;90.40
22108;DHT22;11220;48.812;9.128;2022-11-20T09:21:56;17.40;90.40
22108;DHT22;11220;48.812;9.128;2022-11-20T09:24:22;17.40;90.40
22108;DHT22;11220;48.812;9.128;2022-11-20T09:26:47;17.40;90.40
22108;DHT22;11220;48.812;9.128;2022-11-20T09:29:13;17.30;90.40
22108;DHT22;11220;48.812;9.128;2022-11-20T09:31:39;17.50;90.50
22108;DHT22;11220;48.812;9.128;2022-11-20T09:34:04;17.40;90.50
22108;DHT22;11220;48.812;9.128;2022-11-20T09:36:30;17.50;90.50
22108;DHT22;11220;48.812;9.128;2022-11-20T09:38:55;17.90;90.60
22108;DHT22;11220;48.812;9.128;2022-11-20T09:55:17;17.50;90.60
22108;DHT22;11220;48.812;9.128;2022-11-20T09:57:45;17.50;90.60
22108;DHT22;11220;48.812;9.128;2022-11-20T10:00:13;17.50;90.70
22108;DHT22;11220;48.812;9.128;2022-11-20T10:02:54;17.50;90.70
22108;DHT22;11220;48.812;9.128;2022-11-20T10:05:28;17.40;90.60
22108;DHT22;11220;48.812;9.128;2022-11-20T10:08:18;17.50;90.70
22108;DHT22;11220;48.812;9.128;2022-11-20T10:10:54;17.50;90.70
22108;DHT22;11220;48.812;9.128;2022-11-20T10:13:45;17.50;90.70
22108;DHT22;11220;48.812;9.128;2022-11-20T10:19:25;17.50;90.70
22108;DHT22;11220;48.812;9.128;2022-11-20T10:30:11;17.50;90.70
22108;DHT22;11220;48.812;9.128;2022-11-20T10:32:39;17.50;90.70
22108;DHT22;11220;48.812;9.128;2022-11-20T10:35:31;17.50;90.70
22108;DHT22;11220;48.812;9.128;2022-11-20T10:38:00;17.50;90.60
22108;DHT22;11220;48.812;9.128;2022-11-20T10:40:45;17.50;90.70
22108;DHT22;11220;48.812;9.128;2022-11-20T10:43:21;17.50;90.70
22108;DHT22;11220;48.812;9.128;2022-11-20T10:45:53;17.70;90.70
22108;DHT22;11220;48.812;9.128;2022-11-20T10:48:24;17.50;90.60
22108;DHT22;11220;48.812;9.128;2022-11-20T10:56:17;17.60;90.70
22108;DHT22;11220;48.812;9.128;2022-11-20T11:01:47;17.60;90.70
22108;DHT22;11220;48.812;9.128;2022-11-20T11:07:42;17.60;90.70
22108;DHT22;11220;48.812;9.128;2022-11-20T11:09:54;17.50;90.70
22108;DHT22;11220;48.812;9.128;2022-11-20T11:12:25;17.60;90.70
22108;DHT22;11220;48.812;9.128;2022-11-20T11:14:56;17.60;90.70
22108;DHT22;11220;48.812;9.128;2022-11-20T11:17:30;17.80;90.80
22108;DHT22;11220;48.812;9.128;2022-11-20T11:20:17;17.60;90.70
22108;DHT22;11220;48.812;9.128;2022-11-20T11:22:55;17.60;90.80
22108;DHT22;11220;48.812;9.128;2022-11-20T11:25:32;17.50;90.80
22108;DHT22;11220;48.812;9.128;2022-11-20T11:30:44;17.60;90.80
22108;DHT22;11220;48.812;9.128;2022-11-20T11:33:12;17.60;90.80
22108;DHT22;11220;48.812;9.128;2022-11-20T11:35:46;18.00;91.00
22108;DHT22;11220;48.812;9.128;2022-11-20T11:38:15;17.50;90.90
22108;DHT22;11220;48.812;9.128;2022-11-20T11:40:42;17.60;90.90
22108;DHT22;11220;48.812;9.128;2022-11-20T11:43:25;17.70;91.10
22108;DHT22;11220;48.812;9.128;2022-11-20T11:46:33;17.70;91.10
22108;DHT22;11220;48.812;9.128;2022-11-20T11:49:01;17.70;91.10
22108;DHT22;11220;48.812;9.128;2022-11-20T11:54:19;17.70;91.10
22108;DHT22;11220;48.812;9.128;2022-11-20T11:56:45;17.70;91.20
22108;DHT22;11220;48.812;9.128;2022-11-20T11:59:18;17.80;91.20
22108;DHT22;11220;48.812;9.128;2022-11-20T12:01:54;17.70;91.20
22108;DHT22;11220;48.812;9.128;2022-11-20T12:04:43;17.70;91.20
22108;DHT22;11220;48.812;9.128;2022-11-20T12:07:19;17.70;91.20
22108;DHT22;11220;48.812;9.128;2022-11-20T12:09:49;17.70;91.30
22108;DHT22;11220;48.812;9.128;2022-11-20T12:12:25;17.80;91.40
22108;DHT22;11220;48.812;9.128;2022-11-20T12:14:54;17.80;91.40
22108;DHT22;11220;48.812;9.128;2022-11-20T12:17:20;17.80;91.40
22108;DHT22;11220;48.812;9.128;2022-11-20T12:19:46;17.90;91.40
22108;DHT22;11220;48.812;9.128;2022-11-20T12:22:46;17.80;91.40
22108;DHT22;11220;48.812;9.128;2022-11-20T12:30:44;17.80;91.40
22108;DHT22;11220;48.812;9.128;2022-11-20T12:33:19;17.80;91.40
22108;DHT22;11220;48.812;9.128;2022-11-20T12:47:24;17.80;91.40
22108;DHT22;11220;48.812;9.128;2022-11-20T12:52:47;17.80;91.40
22108;DHT22;11220;48.812;9.128;2022-11-20T12:58:18;17.90;91.40
22108;DHT22;11220;48.812;9.128;2022-11-20T13:01:19;17.90;91.40
22108;DHT22;11220;48.812;9.128;2022-11-20T13:06:55;17.90;91.80
22108;DHT22;11220;48.812;9.128;2022-11-20T13:09:22;18.00;91.40
22108;DHT22;11220;48.812;9.128;2022-11-20T13:14:40;17.90;91.30
22108;DHT22;11220;48.812;9.128;2022-11-20T13:17:34;18.00;91.30
22108;DHT22;11220;48.812;9.128;2022-11-20T13:20:02;17.90;91.20
22108;DHT22;11220;48.812;9.128;2022-11-20T13:22:46;17.90;91.20
22108;DHT22;11220;48.812;9.128;2022-11-20T13:25:30;17.90;91.10
22108;DHT22;11220;48.812;9.128;2022-11-20T13:27:58;17.90;91.10
22108;DHT22;11220;48.812;9.128;2022-11-20T13:30:26;18.00;91.10
22108;DHT22;11220;48.812;9.128;2022-11-20T13:32:54;17.90;91.10
22108;DHT22;11220;48.812;9.128;2022-11-20T13:35:34;18.00;91.10
22108;DHT22;11220;48.812;9.128;2022-11-20T13:38:09;18.00;91.00
22108;DHT22;11220;48.812;9.128;2022-11-20T13:40:50;18.00;91.00
22108;DHT22;11220;48.812;9.128;2022-11-20T13:43:19;18.00;91.00
22108;DHT22;11220;48.812;9.128;2022-11-20T13:46:00;18.00;91.00
22108;DHT22;11220;48.812;9.128;2022-11-20T13:48:28;17.90;90.90
22108;DHT22;11220;48.812;9.128;2022-11-20T13:56:59;17.90;90.90
22108;DHT22;11220;48.812;9.128;2022-11-20T13:59:30;17.90;90.90
22108;DHT22;11220;48.812;9.128;2022-11-20T14:01:59;17.90;90.90
22108;DHT22;11220;48.812;9.128;2022-11-20T14:04:36;17.90;90.90
22108;DHT22;11220;48.812;9.128;2022-11-20T14:07:05;17.90;90.90
22108;DHT22;11220;48.812;9.128;2022-11-20T14:09:33;17.90;90.90
22108;DHT22;11220;48.812;9.128;2022-11-20T14:12:00;18.30;91.00
22108;DHT22;11220;48.812;9.128;2022-11-20T14:14:28;17.90;90.90
22108;DHT22;11220;48.812;9.128;2022-11-20T14:17:06;17.90;90.90
22108;DHT22;11220;48.812;9.128;2022-11-20T14:19:32;17.90;90.90
22108;DHT22;11220;48.812;9.128;2022-11-20T14:22:19;17.90;90.90
22108;DHT22;11220;48.812;9.128;2022-11-20T14:24:45;17.90;90.90
22108;DHT22;11220;48.812;9.128;2022-11-20T14:27:16;17.80;90.80
22108;DHT22;11220;48.812;9.128;2022-11-20T14:29:44;17.80;90.80
22108;DHT22;11220;48.812;9.128;2022-11-20T14:32:10;17.80;90.80
22108;DHT22;11220;48.812;9.128;2022-11-20T14:34:39;17.70;90.80
22108;DHT22;11220;48.812;9.128;2022-11-20T14:37:17;17.80;91.30
22108;DHT22;11220;48.812;9.128;2022-11-20T14:39:49;17.80;90.90
22108;DHT22;11220;48.812;9.128;2022-11-20T14:44:47;17.80;90.90
22108;DHT22;11220;48.812;9.128;2022-11-20T14:47:17;17.80;90.90
22108;DHT22;11220;48.812;9.128;2022-11-20T14:49:43;17.80;90.90
22108;DHT22;11220;48.812;9.128;2022-11-20T14:52:14;17.80;90.90
22108;DHT22;11220;48.812;9.128;2022-11-20T14:54:48;17.80;90.90
22108;DHT22;11220;48.812;9.128;2022-11-20T14:57:30;17.80;90.90
22108;DHT22;11220;48.812;9.128;2022-11-20T15:02:45;17.80;90.80
22108;DHT22;11220;48.812;9.128;2022-11-20T15:05:11;17.70;90.80
22108;DHT22;11220;48.812;9.128;2022-11-20T15:07:40;17.80;90.80
22108;DHT22;11220;48.812;9.128;2022-11-20T15:10:24;18.70;91.10
22108;DHT22;11220;48.812;9.128;2022-11-20T15:13:24;17.70;90.80
22108;DHT22;11220;48.812;9.128;2022-11-20T15:15:52;17.70;90.80
22108;DHT22;11220;48.812;9.128;2022-11-20T15:20:48;17.70;90.80
22108;DHT22;11220;48.812;9.128;2022-11-20T15:23:17;17.70;90.80
22108;DHT22;11220;48.812;9.128;2022-11-20T15:25:47;17.70;90.80
22108;DHT22;11220;48.812;9.128;2022-11-20T15:28:31;17.70;90.80
22108;DHT22;11220;48.812;9.128;2022-11-20T15:30:58;17.70;90.80
22108;DHT22;11220;48.812;9.128;2022-11-20T15:33:24;17.70;90.80
22108;DHT22;11220;48.812;9.128;2022-11-20T15:35:49;17.60;90.80
22108;DHT22;11220;48.812;9.128;2022-11-20T15:38:15;17.70;90.80
22108;DHT22;11220;48.812;9.128;2022-11-20T15:40:40;17.70;90.80
22108;DHT22;11220;48.812;9.128;2022-11-20T15:43:06;17.60;90.80
22108;DHT22;11220;48.812;9.128;2022-11-20T15:45:46;17.80;90.80
22108;DHT22;11220;48.812;9.128;2022-11-20T15:48:19;17.70;90.80
22108;DHT22;11220;48.812;9.128;2022-11-20T15:53:19;17.60;90.70
22108;DHT22;11220;48.812;9.128;2022-11-20T15:55:45;17.60;90.70
22108;DHT22;11220;48.812;9.128;2022-11-20T15:58:11;17.70;90.80
22108;DHT22;11220;48.812;9.128;2022-11-20T16:00:36;17.60;90.70
22108;DHT22;11220;48.812;9.128;2022-11-20T16:03:02;17.60;90.70
22108;DHT22;11220;48.812;9.128;2022-11-20T16:05:28;17.60;90.70
22108;DHT22;11220;48.812;9.128;2022-11-20T16:07:54;17.70;90.70
22108;DHT22;11220;48.812;9.128;2022-11-20T16:10:20;18.00;90.80
22108;DHT22;11220;48.812;9.128;2022-11-20T16:12:45;17.60;90.70
22108;DHT22;11220;48.812;9.128;2022-11-20T16:15:30;17.80;90.70
22108;DHT22;11220;48.812;9.128;2022-11-20T16:18:16;17.60;90.70
22108;DHT22;11220;48.812;9.128;2022-11-20T16:20:42;17.60;90.60
22108;DHT22;11220;48.812;9.128;2022-11-20T16:23:08;17.60;90.60
22108;DHT22;11220;48.812;9.128;2022-11-20T16:25:34;17.60;90.60
22108;DHT22;11220;48.812;9.128;2022-11-20T16:27:59;17.50;90.60
22108;DHT22;11220;48.812;9.128;2022-11-20T16:30:26;17.60;90.60
22108;DHT22;11220;48.812;9.128;2022-11-20T16:32:51;17.60;90.60
22108;DHT22;11220;48.812;9.128;2022-11-20T16:35:17;17.60;90.60
22108;DHT22;11220;48.812;9.128;2022-11-20T16:37:42;17.50;90.50
22108;DHT22;11220;48.812;9.128;2022-11-20T16:40:09;17.50;90.50
22108;DHT22;11220;48.812;9.128;2022-11-20T16:42:36;17.50;90.50
22108;DHT22;11220;48.812;9.128;2022-11-20T16:45:03;17.60;90.60
22108;DHT22;11220;48.812;9.128;2022-11-20T16:47:33;17.50;90.50
22108;DHT22;11220;48.812;9.128;2022-11-20T16:49:59;17.50;90.50
22108;DHT22;11220;48.812;9.128;2022-11-20T16:52:24;17.60;90.50
22108;DHT22;11220;48.812;9.128;2022-11-20T16:54:50;17.50;90.50
22108;DHT22;11220;48.812;9.128;2022-11-20T16:57:15;17.50;90.50
22108;DHT22;11220;48.812;9.128;2022-11-20T16:59:41;17.50;90.40
22108;DHT22;11220;48.812;9.128;2022-11-20T17:02:08;17.50;90.40
22108;DHT22;11220;48.812;9.128;2022-11-20T17:04:35;17.50;90.40
22108;DHT22;11220;48.812;9.128;2022-11-20T17:07:00;17.50;90.40
22108;DHT22;11220;48.812;9.128;2022-11-20T17:09:27;17.50;90.40
22108;DHT22;11220;48.812;9.128;2022-11-20T17:11:52;17.50;90.30
22108;DHT22;11220;48.812;9.128;2022-11-20T17:14:18;17.90;90.40
22108;DHT22;11220;48.812;9.128;2022-11-20T17:16:44;17.50;90.30
22108;DHT22;11220;48.812;9.128;2022-11-20T17:19:09;17.40;90.30
22108;DHT22;11220;48.812;9.128;2022-11-20T17:21:36;17.40;90.30
22108;DHT22;11220;48.812;9.128;2022-11-20T17:24:04;17.60;90.30
22108;DHT22;11220;48.812;9.128;2022-11-20T17:26:31;17.40;90.30